createdAt,value
2017-11-18T00:00:32.563Z,2.74
2017-11-18T00:01:35.037Z,2.80
2017-11-18T00:02:37.508Z,2.93
2017-11-18T00:03:39.999Z,2.85
2017-11-18T00:04:42.498Z,2.94
2017-11-18T00:05:44.983Z,2.89
2017-11-18T00:06:47.472Z,2.83
2017-11-18T00:07:49.964Z,2.90
2017-11-18T00:08:52.474Z,3.20
2017-11-18T00:09:54.986Z,3.07
2017-11-18T00:10:57.474Z,3.11
2017-11-18T00:11:59.987Z,3.22
2017-11-18T00:13:02.478Z,3.20
2017-11-18T00:14:04.959Z,3.07
2017-11-18T00:15:07.446Z,3.02
2017-11-18T00:16:09.931Z,3.05
2017-11-18T00:17:12.418Z,3.20
2017-11-18T00:18:14.892Z,3.13
2017-11-18T00:19:17.376Z,3.23
2017-11-18T00:20:19.860Z,3.41
2017-11-18T00:21:22.342Z,3.27
2017-11-18T00:22:24.831Z,3.37
2017-11-18T00:23:27.323Z,3.49
2017-11-18T00:24:29.803Z,3.63
2017-11-18T00:25:32.316Z,3.64
2017-11-18T00:26:34.781Z,3.60
2017-11-18T00:27:37.276Z,3.63
2017-11-18T00:28:39.764Z,3.67
2017-11-18T00:29:42.253Z,3.70
2017-11-18T00:30:44.740Z,3.56
2017-11-18T00:31:47.226Z,3.68
2017-11-18T00:32:49.701Z,3.60
2017-11-18T00:33:52.182Z,3.35
2017-11-18T00:34:54.672Z,3.38
2017-11-18T00:35:57.215Z,3.44
2017-11-18T00:36:59.694Z,3.30
2017-11-18T00:38:02.168Z,3.56
2017-11-18T00:39:04.664Z,3.61
2017-11-18T00:40:07.148Z,3.58
2017-11-18T00:41:09.664Z,3.47
2017-11-18T00:42:12.155Z,3.43
2017-11-18T00:43:14.624Z,3.51
2017-11-18T00:44:17.088Z,3.44
2017-11-18T00:45:19.586Z,3.33
2017-11-18T00:46:22.087Z,3.63
2017-11-18T00:47:24.557Z,3.46
2017-11-18T00:48:27.036Z,3.41
2017-11-18T00:49:29.516Z,3.47
2017-11-18T00:50:31.989Z,3.56
2017-11-18T00:51:34.488Z,3.62
2017-11-18T00:52:36.961Z,3.62
2017-11-18T00:53:39.457Z,3.57
2017-11-18T00:54:41.965Z,3.58
2017-11-18T00:55:44.459Z,3.41
2017-11-18T00:56:46.985Z,3.36
2017-11-18T00:57:49.472Z,3.44
2017-11-18T00:58:51.954Z,3.32
2017-11-18T00:59:54.442Z,3.20
2017-11-18T01:00:56.963Z,3.24
2017-11-18T01:01:59.462Z,3.43
2017-11-18T01:03:01.948Z,3.49
2017-11-18T01:04:04.408Z,3.62
2017-11-18T01:05:06.918Z,3.62
2017-11-18T01:06:09.401Z,3.67
2017-11-18T01:07:11.888Z,3.52
2017-11-18T01:08:14.356Z,3.54
2017-11-18T01:09:16.829Z,3.50
2017-11-18T01:10:19.306Z,3.54
2017-11-18T01:11:21.797Z,3.40
2017-11-18T01:12:24.318Z,3.47
2017-11-18T01:13:26.785Z,3.40
2017-11-18T01:14:29.269Z,3.46
2017-11-18T01:15:31.814Z,3.60
2017-11-18T01:16:34.280Z,3.53
2017-11-18T01:17:36.784Z,3.61
2017-11-18T01:18:39.284Z,3.74
2017-11-18T01:19:41.771Z,3.75
2017-11-18T01:20:44.254Z,3.64
2017-11-18T01:21:46.732Z,3.36
2017-11-18T01:22:49.217Z,3.18
2017-11-18T01:23:51.698Z,3.37
2017-11-18T01:24:54.168Z,3.49
2017-11-18T01:25:56.674Z,3.49
2017-11-18T01:26:59.158Z,3.42
2017-11-18T01:28:01.652Z,3.32
2017-11-18T01:29:04.134Z,3.50
2017-11-18T01:30:06.615Z,3.55
2017-11-18T01:31:09.088Z,3.46
2017-11-18T01:32:11.576Z,3.46
2017-11-18T01:33:14.134Z,3.45
2017-11-18T01:34:18.533Z,3.17
2017-11-18T01:35:20.995Z,3.18
2017-11-18T01:36:23.465Z,3.29
2017-11-18T01:37:25.938Z,3.25
2017-11-18T01:38:28.438Z,3.14
2017-11-18T01:39:30.961Z,2.91
2017-11-18T01:40:33.432Z,3.02
2017-11-18T01:41:35.922Z,2.99
2017-11-18T01:42:38.394Z,2.94
2017-11-18T01:43:40.893Z,3.04
2017-11-18T01:44:43.378Z,3.11
2017-11-18T01:45:45.858Z,3.04
2017-11-18T01:46:48.320Z,3.00
2017-11-18T01:47:50.798Z,3.04
2017-11-18T01:48:53.293Z,3.03
2017-11-18T01:49:55.757Z,2.93
2017-11-18T01:50:58.238Z,2.89
2017-11-18T01:52:00.719Z,2.80
2017-11-18T01:53:03.204Z,2.79
2017-11-18T01:54:05.749Z,2.93
2017-11-18T01:55:08.235Z,2.89
2017-11-18T01:56:10.727Z,2.91
2017-11-18T01:57:13.192Z,2.93
2017-11-18T01:58:15.669Z,2.91
2017-11-18T01:59:18.152Z,2.97
2017-11-18T02:00:20.645Z,2.80
2017-11-18T02:01:23.140Z,2.81
2017-11-18T02:02:37.408Z,2.86
2017-11-18T02:03:39.892Z,2.79
2017-11-18T02:04:42.434Z,2.67
2017-11-18T02:05:44.909Z,2.67
2017-11-18T02:06:47.390Z,2.79
2017-11-18T02:07:49.852Z,2.86
2017-11-18T02:08:52.342Z,2.90
2017-11-18T02:09:54.859Z,2.97
2017-11-18T02:10:57.341Z,2.90
2017-11-18T02:11:59.831Z,2.99
2017-11-18T02:13:02.310Z,2.95
2017-11-18T02:14:04.795Z,3.01
2017-11-18T02:15:07.303Z,2.97
2017-11-18T02:16:09.796Z,3.03
2017-11-18T02:17:12.260Z,2.97
2017-11-18T02:18:14.742Z,3.03
2017-11-18T02:19:17.237Z,2.97
2017-11-18T02:20:19.749Z,3.02
2017-11-18T02:21:22.728Z,3.01
2017-11-18T02:22:25.209Z,2.94
2017-11-18T02:23:27.704Z,2.99
2017-11-18T02:24:30.167Z,2.97
2017-11-18T02:25:32.682Z,3.03
2017-11-18T02:26:35.167Z,3.06
2017-11-18T02:27:37.663Z,3.08
2017-11-18T02:28:40.151Z,3.05
2017-11-18T02:29:42.687Z,3.02
2017-11-18T02:30:45.198Z,3.04
2017-11-18T02:31:47.675Z,2.94
2017-11-18T02:32:50.144Z,3.02
2017-11-18T02:33:52.621Z,3.01
2017-11-18T02:34:55.111Z,2.95
2017-11-18T02:35:57.631Z,2.84
2017-11-18T02:37:00.104Z,2.91
2017-11-18T02:38:02.590Z,2.91
2017-11-18T02:39:05.062Z,2.76
2017-11-18T02:40:07.540Z,2.87
2017-11-18T02:41:10.028Z,2.82
2017-11-18T02:42:12.510Z,2.93
2017-11-18T02:43:14.986Z,2.95
2017-11-18T02:44:17.503Z,2.89
2017-11-18T02:45:19.995Z,2.79
2017-11-18T02:46:22.493Z,2.83
2017-11-18T02:47:24.978Z,2.85
2017-11-18T02:48:27.442Z,2.84
2017-11-18T02:49:29.956Z,2.96
2017-11-18T02:50:32.445Z,2.91
2017-11-18T02:51:34.932Z,2.96
2017-11-18T02:52:37.732Z,2.94
2017-11-18T02:53:40.223Z,2.91
2017-11-18T02:54:42.714Z,2.85
2017-11-18T02:55:45.171Z,2.88
2017-11-18T02:56:47.673Z,2.86
2017-11-18T02:57:50.141Z,2.78
2017-11-18T02:58:52.628Z,2.80
2017-11-18T02:59:55.122Z,2.79
2017-11-18T03:00:57.606Z,2.82
2017-11-18T03:02:00.093Z,2.96
2017-11-18T03:03:02.601Z,2.97
2017-11-18T03:04:05.095Z,2.92
2017-11-18T03:05:07.573Z,3.03
2017-11-18T03:06:10.055Z,3.05
2017-11-18T03:07:12.536Z,3.05
2017-11-18T03:08:15.005Z,3.01
2017-11-18T03:09:17.485Z,3.06
2017-11-18T03:10:19.949Z,3.16
2017-11-18T03:11:22.420Z,3.12
2017-11-18T03:12:24.918Z,2.99
2017-11-18T03:13:27.392Z,2.93
2017-11-18T03:14:29.856Z,2.99
2017-11-18T03:15:32.324Z,3.15
2017-11-18T03:16:34.792Z,3.13
2017-11-18T03:17:37.315Z,3.04
2017-11-18T03:18:39.807Z,3.31
2017-11-18T03:19:42.276Z,3.29
2017-11-18T03:20:44.754Z,3.30
2017-11-18T03:21:47.261Z,3.34
2017-11-18T03:22:49.780Z,3.22
2017-11-18T03:23:52.246Z,3.09
2017-11-18T03:24:54.711Z,3.17
2017-11-18T03:25:57.177Z,3.10
2017-11-18T03:26:59.661Z,3.27
2017-11-18T03:28:02.172Z,3.36
2017-11-18T03:29:04.660Z,3.32
2017-11-18T03:30:07.137Z,3.21
2017-11-18T03:31:09.615Z,3.15
2017-11-18T03:32:12.099Z,3.06
2017-11-18T03:33:14.584Z,2.92
2017-11-18T03:34:17.059Z,3.09
2017-11-18T03:35:19.584Z,2.92
2017-11-18T03:36:22.077Z,2.83
2017-11-18T03:37:24.557Z,2.66
2017-11-18T03:38:27.066Z,2.53
2017-11-18T03:39:29.537Z,2.54
2017-11-18T03:40:32.022Z,2.66
2017-11-18T03:41:34.498Z,2.56
2017-11-18T03:42:36.978Z,2.51
2017-11-18T03:43:39.465Z,2.34
2017-11-18T03:44:41.945Z,2.60
2017-11-18T03:45:44.428Z,2.70
2017-11-18T03:46:46.901Z,2.64
2017-11-18T03:47:49.380Z,2.51
2017-11-18T03:48:51.867Z,2.60
2017-11-18T03:49:54.340Z,2.47
2017-11-18T03:50:56.817Z,2.58
2017-11-18T03:51:59.292Z,2.53
2017-11-18T03:53:01.772Z,2.39
2017-11-18T03:54:04.261Z,2.20
2017-11-18T03:55:06.737Z,2.19
2017-11-18T03:56:09.308Z,2.06
2017-11-18T03:57:11.790Z,2.28
2017-11-18T03:58:14.273Z,2.09
2017-11-18T03:59:16.761Z,1.97
2017-11-18T04:00:19.225Z,2.16
2017-11-18T04:01:21.732Z,2.18
2017-11-18T04:02:24.195Z,2.01
2017-11-18T04:03:26.673Z,2.16
2017-11-18T04:04:29.174Z,2.21
2017-11-18T04:05:31.661Z,2.34
2017-11-18T04:06:34.140Z,2.37
2017-11-18T04:07:36.619Z,2.13
2017-11-18T04:08:39.136Z,1.97
2017-11-18T04:09:41.659Z,1.90
2017-11-18T04:10:44.128Z,2.15
2017-11-18T04:11:46.592Z,2.14
2017-11-18T04:12:49.102Z,2.21
2017-11-18T04:13:51.591Z,2.09
2017-11-18T04:14:54.080Z,2.25
2017-11-18T04:15:56.545Z,2.24
2017-11-18T04:16:59.022Z,2.28
2017-11-18T04:18:01.499Z,2.16
2017-11-18T04:19:03.979Z,2.01
2017-11-18T04:20:06.496Z,1.97
2017-11-18T04:21:09.061Z,2.05
2017-11-18T04:22:11.529Z,1.96
2017-11-18T04:23:13.991Z,1.97
2017-11-18T04:24:16.473Z,1.80
2017-11-18T04:25:18.983Z,1.86
2017-11-18T04:26:21.485Z,1.70
2017-11-18T04:27:23.952Z,1.54
2017-11-18T04:28:26.435Z,1.68
2017-11-18T04:29:28.900Z,1.87
2017-11-18T04:30:31.404Z,1.88
2017-11-18T04:31:33.886Z,1.84
2017-11-18T04:32:36.356Z,1.65
2017-11-18T04:33:38.842Z,1.74
2017-11-18T04:34:41.323Z,1.74
2017-11-18T04:35:43.812Z,1.91
2017-11-18T04:36:46.288Z,1.65
2017-11-18T04:37:48.780Z,1.52
2017-11-18T04:38:51.260Z,1.58
2017-11-18T04:39:53.723Z,1.63
2017-11-18T04:40:56.217Z,1.57
2017-11-18T04:41:58.703Z,1.64
2017-11-18T04:43:01.197Z,1.51
2017-11-18T04:44:03.674Z,1.40
2017-11-18T04:45:06.158Z,1.52
2017-11-18T04:46:08.667Z,1.67
2017-11-18T04:47:11.155Z,1.57
2017-11-18T04:48:13.630Z,1.52
2017-11-18T04:49:16.100Z,1.74
2017-11-18T04:50:18.572Z,1.57
2017-11-18T04:51:21.101Z,1.58
2017-11-18T04:52:23.564Z,1.64
2017-11-18T04:53:26.025Z,1.74
2017-11-18T04:54:28.515Z,1.62
2017-11-18T04:55:30.985Z,1.64
2017-11-18T04:56:33.501Z,1.59
2017-11-18T04:57:35.965Z,1.39
2017-11-18T04:58:38.461Z,1.54
2017-11-18T04:59:40.928Z,1.48
2017-11-18T05:00:43.400Z,1.50
2017-11-18T05:01:45.899Z,1.54
2017-11-18T05:02:48.401Z,1.59
2017-11-18T05:03:50.887Z,1.56
2017-11-18T05:04:53.379Z,1.46
2017-11-18T05:05:55.845Z,1.46
2017-11-18T05:06:58.332Z,1.54
2017-11-18T05:08:00.812Z,1.52
2017-11-18T05:09:03.298Z,1.48
2017-11-18T05:10:05.779Z,1.22
2017-11-18T05:11:08.244Z,1.20
2017-11-18T05:12:10.736Z,1.29
2017-11-18T05:13:13.215Z,1.29
2017-11-18T05:14:15.698Z,1.27
2017-11-18T05:15:18.188Z,1.28
2017-11-18T05:16:20.670Z,1.27
2017-11-18T05:17:24.149Z,1.11
2017-11-18T05:18:26.641Z,0.99
2017-11-18T05:19:29.190Z,1.43
2017-11-18T05:20:31.660Z,1.51
2017-11-18T05:21:34.146Z,1.35
2017-11-18T05:22:36.657Z,1.34
2017-11-18T05:23:39.142Z,1.46
2017-11-18T05:24:41.622Z,1.43
2017-11-18T05:25:44.127Z,1.37
2017-11-18T05:26:46.649Z,1.57
2017-11-18T05:27:49.150Z,1.64
2017-11-18T05:28:51.630Z,1.55
2017-11-18T05:29:54.101Z,1.47
2017-11-18T05:30:56.594Z,1.67
2017-11-18T05:31:59.068Z,1.65
2017-11-18T05:33:01.560Z,1.68
2017-11-18T05:34:04.053Z,1.76
2017-11-18T05:35:06.534Z,1.77
2017-11-18T05:36:09.019Z,1.91
2017-11-18T05:37:11.489Z,1.95
2017-11-18T05:38:14.002Z,1.84
2017-11-18T05:39:16.480Z,1.97
2017-11-18T05:40:18.944Z,1.91
2017-11-18T05:41:21.424Z,1.84
2017-11-18T05:42:23.903Z,1.93
2017-11-18T05:43:26.407Z,2.02
2017-11-18T05:44:28.903Z,2.01
2017-11-18T05:45:31.391Z,2.12
2017-11-18T05:46:33.872Z,2.01
2017-11-18T05:47:36.367Z,2.12
2017-11-18T05:48:38.860Z,1.95
2017-11-18T05:49:41.348Z,1.97
2017-11-18T05:50:44.410Z,1.97
2017-11-18T05:51:46.892Z,2.04
2017-11-18T05:52:49.411Z,2.08
2017-11-18T05:53:51.929Z,2.01
2017-11-18T05:54:54.415Z,2.17
2017-11-18T05:55:56.884Z,2.13
2017-11-18T05:56:59.352Z,2.14
2017-11-18T05:58:01.839Z,2.25
2017-11-18T05:59:04.335Z,2.23
2017-11-18T06:00:06.821Z,2.14
2017-11-18T06:01:09.299Z,2.12
2017-11-18T06:02:11.807Z,2.18
2017-11-18T06:03:14.333Z,2.21
2017-11-18T06:04:16.855Z,2.19
2017-11-18T06:05:19.352Z,2.21
2017-11-18T06:06:21.812Z,2.27
2017-11-18T06:07:24.276Z,2.24
2017-11-18T06:08:26.745Z,2.35
2017-11-18T06:09:29.233Z,2.34
2017-11-18T06:10:31.712Z,2.43
2017-11-18T06:11:34.248Z,2.43
2017-11-18T06:12:36.716Z,2.49
2017-11-18T06:13:39.198Z,2.39
2017-11-18T06:14:41.711Z,2.33
2017-11-18T06:15:44.178Z,2.26
2017-11-18T06:16:46.659Z,2.44
2017-11-18T06:17:49.169Z,2.49
2017-11-18T06:18:51.646Z,2.39
2017-11-18T06:19:54.625Z,2.21
2017-11-18T06:20:57.097Z,2.40
2017-11-18T06:21:59.564Z,2.45
2017-11-18T06:23:02.057Z,2.46
2017-11-18T06:24:04.541Z,2.49
2017-11-18T06:25:07.075Z,2.38
2017-11-18T06:26:09.544Z,2.32
2017-11-18T06:27:12.023Z,2.38
2017-11-18T06:28:14.502Z,2.44
2017-11-18T06:29:16.996Z,2.45
2017-11-18T06:30:19.493Z,2.34
2017-11-18T06:31:21.957Z,2.50
2017-11-18T06:32:24.468Z,2.53
2017-11-18T06:33:26.944Z,2.47
2017-11-18T06:34:29.445Z,2.52
2017-11-18T06:35:31.938Z,2.43
2017-11-18T06:36:34.436Z,2.42
2017-11-18T06:37:36.899Z,2.40
2017-11-18T06:38:39.411Z,2.44
2017-11-18T06:39:41.910Z,2.45
2017-11-18T06:40:44.412Z,2.49
2017-11-18T06:41:46.876Z,2.49
2017-11-18T06:42:49.365Z,2.51
2017-11-18T06:43:51.843Z,2.49
2017-11-18T06:44:54.342Z,2.53
2017-11-18T06:45:56.842Z,2.56
2017-11-18T06:46:59.324Z,2.43
2017-11-18T06:48:01.803Z,2.56
2017-11-18T06:49:04.283Z,2.61
2017-11-18T06:50:06.829Z,2.60
2017-11-18T06:51:09.321Z,2.53
2017-11-18T06:52:11.788Z,2.54
2017-11-18T06:53:14.249Z,2.54
2017-11-18T06:54:16.737Z,2.62
2017-11-18T06:55:19.241Z,2.64
2017-11-18T06:56:21.784Z,2.58
2017-11-18T06:57:24.270Z,2.48
2017-11-18T06:58:26.960Z,2.58
2017-11-18T06:59:29.438Z,2.51
2017-11-18T07:00:32.021Z,2.48
2017-11-18T07:01:34.537Z,2.58
2017-11-18T07:02:37.004Z,2.57
2017-11-18T07:03:39.501Z,2.42
2017-11-18T07:04:42.024Z,2.50
2017-11-18T07:05:44.517Z,2.53
2017-11-18T07:06:47.023Z,2.44
2017-11-18T07:07:49.600Z,2.50
2017-11-18T07:08:52.427Z,2.46
2017-11-18T07:09:55.069Z,2.53
2017-11-18T07:10:57.535Z,2.65
2017-11-18T07:12:00.078Z,2.56
2017-11-18T07:13:02.555Z,2.53
2017-11-18T07:14:05.029Z,2.79
2017-11-18T07:15:07.491Z,2.76
2017-11-18T07:16:09.978Z,2.68
2017-11-18T07:17:12.473Z,2.75
2017-11-18T07:18:14.956Z,2.91
2017-11-18T07:19:17.441Z,3.01
2017-11-18T07:20:19.939Z,3.02
2017-11-18T07:21:22.436Z,3.03
2017-11-18T07:22:24.988Z,2.98
2017-11-18T07:23:27.478Z,3.01
2017-11-18T07:24:29.991Z,3.05
2017-11-18T07:25:32.503Z,3.13
2017-11-18T07:26:34.989Z,3.15
2017-11-18T07:27:37.484Z,3.09
2017-11-18T07:28:39.957Z,2.99
2017-11-18T07:29:42.425Z,3.06
2017-11-18T07:30:44.907Z,3.10
2017-11-18T07:31:47.385Z,3.17
2017-11-18T07:32:49.892Z,3.17
2017-11-18T07:33:52.383Z,3.14
2017-11-18T07:34:54.862Z,3.18
2017-11-18T07:35:57.469Z,3.22
2017-11-18T07:36:59.956Z,3.21
2017-11-18T07:38:02.494Z,3.22
2017-11-18T07:39:04.984Z,3.27
2017-11-18T07:40:07.474Z,3.19
2017-11-18T07:41:09.953Z,3.28
2017-11-18T07:42:12.434Z,3.35
2017-11-18T07:43:14.945Z,3.36
2017-11-18T07:44:17.422Z,3.26
2017-11-18T07:45:19.912Z,3.19
2017-11-18T07:46:22.403Z,3.32
2017-11-18T07:47:24.886Z,3.43
2017-11-18T07:48:27.390Z,3.50
2017-11-18T07:49:29.874Z,3.58
2017-11-18T07:50:32.363Z,3.54
2017-11-18T07:51:34.853Z,3.59
2017-11-18T07:52:37.402Z,3.66
2017-11-18T07:53:40.507Z,3.61
2017-11-18T07:54:42.988Z,3.64
2017-11-18T07:55:45.458Z,3.68
2017-11-18T07:56:47.920Z,3.75
2017-11-18T07:57:50.406Z,3.78
2017-11-18T07:58:52.926Z,3.78
2017-11-18T07:59:55.409Z,3.85
2017-11-18T08:00:57.877Z,3.93
2017-11-18T08:02:00.343Z,3.99
2017-11-18T08:03:02.830Z,4.02
2017-11-18T08:04:05.338Z,4.06
2017-11-18T08:05:07.825Z,4.14
2017-11-18T08:06:10.305Z,4.15
2017-11-18T08:07:12.765Z,4.23
2017-11-18T08:08:15.229Z,4.28
2017-11-18T08:09:17.710Z,4.22
2017-11-18T08:10:20.172Z,4.25
2017-11-18T08:11:22.671Z,4.31
2017-11-18T08:12:25.182Z,4.39
2017-11-18T08:13:27.665Z,4.43
2017-11-18T08:14:30.179Z,4.39
2017-11-18T08:15:32.659Z,4.43
2017-11-18T08:16:35.138Z,4.46
2017-11-18T08:17:37.616Z,4.47
2017-11-18T08:18:40.204Z,4.49
2017-11-18T08:19:42.711Z,4.50
2017-11-18T08:20:45.174Z,4.50
2017-11-18T08:21:47.641Z,4.49
2017-11-18T08:22:50.107Z,4.51
2017-11-18T08:23:52.572Z,4.53
2017-11-18T08:24:55.068Z,4.57
2017-11-18T08:25:57.584Z,4.54
2017-11-18T08:27:00.048Z,4.56
2017-11-18T08:28:02.527Z,4.57
2017-11-18T08:29:05.011Z,4.57
2017-11-18T08:30:07.545Z,4.60
2017-11-18T08:31:10.014Z,4.56
2017-11-18T08:32:12.497Z,4.65
2017-11-18T08:33:14.984Z,4.63
2017-11-18T08:34:17.467Z,4.64
2017-11-18T08:35:19.967Z,4.64
2017-11-18T08:36:40.187Z,4.61
2017-11-18T08:37:42.651Z,4.69
2017-11-18T08:38:45.119Z,4.66
2017-11-18T08:39:47.685Z,4.66
2017-11-18T08:40:50.166Z,4.70
2017-11-18T08:41:52.634Z,4.72
2017-11-18T08:42:55.102Z,4.80
2017-11-18T08:43:57.564Z,4.74
2017-11-18T08:45:00.020Z,4.77
2017-11-18T08:46:02.485Z,4.84
2017-11-18T08:47:04.970Z,4.92
2017-11-18T08:48:07.439Z,4.94
2017-11-18T08:49:09.905Z,4.92
2017-11-18T08:50:12.407Z,4.98
2017-11-18T08:51:14.900Z,5.02
2017-11-18T08:52:17.391Z,4.93
2017-11-18T08:53:19.861Z,5.00
2017-11-18T08:54:22.320Z,5.02
2017-11-18T08:55:24.805Z,5.07
2017-11-18T08:56:27.290Z,4.98
2017-11-18T08:57:29.751Z,4.97
2017-11-18T08:58:32.223Z,4.96
2017-11-18T08:59:34.696Z,4.92
2017-11-18T09:00:37.171Z,4.92
2017-11-18T09:01:39.650Z,4.91
2017-11-18T09:02:42.125Z,4.92
2017-11-18T09:03:44.585Z,4.93
2017-11-18T09:04:47.062Z,4.97
2017-11-18T09:05:49.525Z,5.01
2017-11-18T09:06:51.984Z,5.07
2017-11-18T09:07:54.479Z,5.04
2017-11-18T09:08:56.936Z,5.01
2017-11-18T09:09:59.468Z,5.03
2017-11-18T09:11:01.933Z,5.07
2017-11-18T09:12:04.442Z,5.13
2017-11-18T09:13:06.942Z,5.10
2017-11-18T09:14:09.422Z,5.12
2017-11-18T09:15:11.950Z,5.08
2017-11-18T09:16:14.440Z,5.03
2017-11-18T09:17:17.738Z,5.04
2017-11-18T09:18:20.264Z,5.02
2017-11-18T09:19:22.726Z,4.99
2017-11-18T09:20:25.192Z,5.04
2017-11-18T09:21:27.670Z,5.06
2017-11-18T09:22:30.130Z,5.03
2017-11-18T09:23:33.504Z,5.01
2017-11-18T09:24:36.028Z,5.14
2017-11-18T09:25:38.568Z,5.11
2017-11-18T09:26:41.049Z,5.16
2017-11-18T09:27:43.534Z,5.16
2017-11-18T09:28:45.996Z,5.11
2017-11-18T09:29:48.455Z,5.10
2017-11-18T09:30:50.916Z,5.16
2017-11-18T09:31:53.436Z,5.14
2017-11-18T09:32:55.904Z,5.18
2017-11-18T09:33:58.365Z,5.19
2017-11-18T09:35:00.850Z,5.06
2017-11-18T09:36:03.326Z,5.08
2017-11-18T09:37:05.798Z,5.09
2017-11-18T09:38:08.277Z,5.13
2017-11-18T09:39:10.750Z,5.16
2017-11-18T09:40:13.228Z,5.13
2017-11-18T09:41:15.701Z,5.17
2017-11-18T09:42:18.173Z,5.12
2017-11-18T09:43:20.642Z,5.16
2017-11-18T09:44:23.123Z,5.18
2017-11-18T09:45:25.588Z,5.22
2017-11-18T09:46:28.056Z,5.22
2017-11-18T09:47:30.542Z,5.20
2017-11-18T09:48:33.009Z,5.25
2017-11-18T09:49:35.478Z,5.28
2017-11-18T09:50:37.958Z,5.20
2017-11-18T09:51:40.418Z,5.22
2017-11-18T09:52:42.880Z,5.28
2017-11-18T09:53:45.349Z,5.22
2017-11-18T09:54:47.832Z,5.24
2017-11-18T09:55:50.309Z,5.24
2017-11-18T09:56:52.777Z,5.27
2017-11-18T09:57:55.246Z,5.29
2017-11-18T09:58:57.721Z,5.29
2017-11-18T10:00:00.210Z,5.33
2017-11-18T10:01:02.681Z,5.42
2017-11-18T10:02:05.165Z,5.39
2017-11-18T10:03:07.624Z,5.39
2017-11-18T10:04:10.105Z,5.35
2017-11-18T10:05:12.574Z,5.37
2017-11-18T10:06:15.033Z,5.35
2017-11-18T10:07:17.507Z,5.31
2017-11-18T10:08:20.063Z,5.29
2017-11-18T10:09:22.523Z,5.29
2017-11-18T10:10:24.994Z,5.40
2017-11-18T10:11:27.477Z,5.41
2017-11-18T10:12:29.936Z,5.40
2017-11-18T10:13:32.414Z,5.37
2017-11-18T10:14:34.885Z,5.38
2017-11-18T10:15:37.382Z,5.42
2017-11-18T10:16:39.848Z,5.43
2017-11-18T10:17:42.312Z,5.46
2017-11-18T10:18:44.784Z,5.48
2017-11-18T10:19:47.245Z,5.53
2017-11-18T10:20:49.704Z,5.41
2017-11-18T10:21:52.176Z,5.42
2017-11-18T10:22:54.686Z,5.46
2017-11-18T10:23:57.168Z,5.46
2017-11-18T10:24:59.641Z,5.51
2017-11-18T10:26:02.100Z,5.60
2017-11-18T10:27:04.580Z,5.55
2017-11-18T10:28:07.079Z,5.51
2017-11-18T10:29:09.567Z,5.50
2017-11-18T10:30:12.034Z,5.48
2017-11-18T10:31:14.519Z,5.53
2017-11-18T10:32:16.989Z,5.55
2017-11-18T10:33:19.453Z,5.56
2017-11-18T10:34:21.939Z,5.55
2017-11-18T10:35:24.408Z,5.56
2017-11-18T10:36:26.882Z,5.62
2017-11-18T10:37:29.356Z,5.66
2017-11-18T10:38:31.838Z,5.64
2017-11-18T10:39:34.300Z,5.64
2017-11-18T10:40:36.768Z,5.64
2017-11-18T10:41:39.254Z,5.60
2017-11-18T10:42:41.734Z,5.64
2017-11-18T10:43:44.200Z,5.60
2017-11-18T10:44:46.681Z,5.60
2017-11-18T10:45:49.153Z,5.63
2017-11-18T10:46:51.648Z,5.73
2017-11-18T10:47:54.127Z,5.79
2017-11-18T10:48:56.619Z,5.82
2017-11-18T10:49:59.572Z,5.77
2017-11-18T10:51:02.044Z,5.79
2017-11-18T10:52:04.530Z,5.77
2017-11-18T10:53:07.017Z,5.76
2017-11-18T10:54:09.497Z,5.79
2017-11-18T10:55:11.957Z,5.85
2017-11-18T10:56:14.463Z,5.78
2017-11-18T10:57:16.937Z,5.84
2017-11-18T10:58:19.427Z,5.84
2017-11-18T10:59:21.932Z,5.88
2017-11-18T11:00:24.426Z,5.89
2017-11-18T11:01:26.884Z,5.89
2017-11-18T11:02:29.344Z,5.91
2017-11-18T11:03:31.822Z,5.95
2017-11-18T11:04:34.318Z,5.95
2017-11-18T11:05:36.798Z,5.97
2017-11-18T11:06:39.282Z,5.90
2017-11-18T11:07:41.758Z,5.90
2017-11-18T11:08:44.216Z,5.93
2017-11-18T11:09:46.712Z,5.97
2017-11-18T11:10:49.183Z,5.93
2017-11-18T11:11:51.658Z,5.94
2017-11-18T11:12:54.138Z,5.95
2017-11-18T11:13:56.601Z,5.93
2017-11-18T11:14:59.059Z,5.95
2017-11-18T11:16:01.539Z,5.96
2017-11-18T11:17:04.129Z,5.95
2017-11-18T11:18:06.607Z,5.96
2017-11-18T11:19:09.083Z,5.99
2017-11-18T11:20:11.553Z,5.98
2017-11-18T11:21:14.025Z,6.00
2017-11-18T11:22:16.506Z,6.01
2017-11-18T11:23:18.989Z,6.04
2017-11-18T11:24:21.448Z,6.08
2017-11-18T11:25:23.904Z,6.11
2017-11-18T11:26:26.376Z,6.15
2017-11-18T11:27:28.900Z,6.24
2017-11-18T11:28:31.747Z,6.15
2017-11-18T11:29:34.317Z,6.12
2017-11-18T11:30:36.822Z,6.12
2017-11-18T11:31:39.322Z,6.02
2017-11-18T11:32:41.810Z,6.00
2017-11-18T11:33:44.272Z,6.07
2017-11-18T11:34:46.749Z,6.11
2017-11-18T11:35:49.224Z,6.17
2017-11-18T11:36:51.698Z,6.10
2017-11-18T11:37:54.163Z,6.05
2017-11-18T11:38:56.624Z,6.11
2017-11-18T11:39:59.103Z,6.10
2017-11-18T11:41:01.592Z,6.14
2017-11-18T11:42:04.054Z,6.08
2017-11-18T11:43:06.520Z,6.09
2017-11-18T11:44:08.997Z,6.16
2017-11-18T11:45:11.490Z,6.13
2017-11-18T11:46:13.969Z,6.19
2017-11-18T11:47:16.445Z,6.16
2017-11-18T11:48:18.929Z,6.20
2017-11-18T11:49:21.453Z,6.31
2017-11-18T11:50:23.906Z,6.32
2017-11-18T11:51:26.364Z,6.31
2017-11-18T11:52:28.836Z,6.25
2017-11-18T11:53:31.395Z,6.20
2017-11-18T11:54:33.884Z,6.29
2017-11-18T11:55:36.370Z,6.36
2017-11-18T11:56:38.838Z,6.38
2017-11-18T11:57:41.299Z,6.29
2017-11-18T11:58:43.805Z,6.29
2017-11-18T11:59:46.268Z,6.36
2017-11-18T12:00:48.789Z,6.34
2017-11-18T12:01:51.244Z,6.38
2017-11-18T12:02:53.731Z,6.39
2017-11-18T12:03:56.210Z,6.49
2017-11-18T12:04:58.676Z,6.59
2017-11-18T12:06:01.169Z,6.56
2017-11-18T12:07:03.654Z,6.57
2017-11-18T12:08:06.186Z,6.61
2017-11-18T12:09:08.761Z,6.66
2017-11-18T12:10:11.223Z,6.67
2017-11-18T12:11:13.694Z,6.72
2017-11-18T12:12:16.165Z,6.66
2017-11-18T12:13:18.650Z,6.56
2017-11-18T12:14:21.126Z,6.51
2017-11-18T12:15:23.602Z,6.62
2017-11-18T12:16:26.074Z,6.63
2017-11-18T12:17:28.577Z,6.65
2017-11-18T12:18:31.072Z,6.58
2017-11-18T12:19:33.549Z,6.55
2017-11-18T12:20:36.087Z,6.65
2017-11-18T12:21:38.621Z,6.73
2017-11-18T12:22:41.105Z,6.83
2017-11-18T12:23:43.567Z,6.79
2017-11-18T12:24:46.122Z,6.73
2017-11-18T12:25:48.619Z,6.76
2017-11-18T12:26:51.085Z,6.75
2017-11-18T12:27:53.562Z,6.90
2017-11-18T12:28:56.045Z,6.99
2017-11-18T12:29:58.650Z,7.06
2017-11-18T12:31:01.126Z,6.90
2017-11-18T12:32:03.632Z,6.89
2017-11-18T12:33:06.110Z,6.85
2017-11-18T12:34:08.579Z,6.84
2017-11-18T12:35:11.064Z,6.88
2017-11-18T12:36:13.532Z,6.95
2017-11-18T12:37:16.009Z,7.11
2017-11-18T12:38:18.469Z,7.20
2017-11-18T12:39:20.931Z,7.18
2017-11-18T12:40:23.401Z,7.21
2017-11-18T12:41:25.887Z,7.19
2017-11-18T12:42:28.357Z,7.07
2017-11-18T12:43:30.828Z,7.00
2017-11-18T12:44:33.341Z,7.04
2017-11-18T12:45:35.816Z,7.10
2017-11-18T12:46:38.273Z,7.19
2017-11-18T12:47:40.749Z,7.18
2017-11-18T12:48:43.213Z,7.24
2017-11-18T12:49:45.677Z,7.24
2017-11-18T12:50:48.140Z,7.17
2017-11-18T12:51:50.610Z,7.19
2017-11-18T12:52:53.068Z,7.21
2017-11-18T12:53:55.550Z,7.22
2017-11-18T12:54:58.012Z,7.24
2017-11-18T12:56:00.503Z,7.23
2017-11-18T12:57:03.001Z,7.21
2017-11-18T12:58:05.486Z,7.13
2017-11-18T12:59:07.962Z,7.17
2017-11-18T13:00:10.443Z,7.12
2017-11-18T13:01:12.962Z,7.06
2017-11-18T13:02:15.427Z,7.05
2017-11-18T13:03:17.906Z,7.12
2017-11-18T13:04:20.365Z,7.15
2017-11-18T13:05:22.829Z,7.10
2017-11-18T13:06:25.306Z,7.11
2017-11-18T13:07:27.817Z,7.07
2017-11-18T13:08:30.295Z,7.04
2017-11-18T13:09:32.804Z,7.01
2017-11-18T13:10:35.280Z,7.07
2017-11-18T13:11:37.761Z,7.05
2017-11-18T13:12:40.237Z,6.93
2017-11-18T13:13:42.715Z,6.99
2017-11-18T13:14:45.194Z,6.96
2017-11-18T13:15:47.666Z,6.91
2017-11-18T13:16:50.129Z,6.87
2017-11-18T13:17:52.613Z,6.97
2017-11-18T13:18:55.077Z,7.08
2017-11-18T13:19:57.541Z,7.11
2017-11-18T13:21:00.013Z,7.18
2017-11-18T13:22:02.489Z,7.31
2017-11-18T13:23:04.964Z,8.01
2017-11-18T13:24:07.447Z,8.99
2017-11-18T13:25:09.920Z,9.24
2017-11-18T13:26:12.392Z,9.05
2017-11-18T13:27:14.870Z,9.55
2017-11-18T13:28:17.361Z,10.26
2017-11-18T13:29:19.935Z,10.35
2017-11-18T13:30:22.400Z,9.97
2017-11-18T13:31:24.878Z,9.62
2017-11-18T13:32:27.351Z,9.68
2017-11-18T13:33:29.816Z,10.04
2017-11-18T13:34:32.303Z,10.71
2017-11-18T13:35:34.769Z,10.06
2017-11-18T13:36:37.228Z,9.22
2017-11-18T13:37:39.705Z,8.88
2017-11-18T13:38:42.160Z,8.52
2017-11-18T13:39:44.631Z,8.45
2017-11-18T13:40:47.149Z,8.66
2017-11-18T13:41:49.640Z,8.58
2017-11-18T13:42:52.100Z,8.85
2017-11-18T13:43:54.560Z,8.94
2017-11-18T13:44:57.038Z,8.79
2017-11-18T13:45:59.562Z,9.36
2017-11-18T13:47:02.058Z,9.62
2017-11-18T13:48:04.529Z,10.43
2017-11-18T13:49:06.988Z,11.63
2017-11-18T13:50:09.463Z,12.15
2017-11-18T13:51:12.005Z,12.62
2017-11-18T13:52:14.489Z,12.24